Missouri River (Missouri), Glasgow (06906500)

StateMissouriLatestUnknown (68600 cfs)
RiverMissouri RiverRatingObservedEstimated
Updated2020-07-13 18:30 (25 minutes ago)Flood - The river is flooding. Obstacles can be treacherous or deadly. The river should be avoided at this stage for casual trips and definitely for the inexperienced. Trips should be attempted only with protective gear and equipment.Flood(none)(none)
Discharge68600 cfs (median: 75000 cfs)High - The river is high and potentially dangerous, especially for the young and / or inexperienced. Normal stream obstacles are sometimes difficult to navigate. Extended distances can be attempted, but canoe travel may not be advisable.High(none)(none)
Height15.64 feetGood - Conditions are ideal for a canoe or kayak. Boats typically will drag on fewer than one-quarter of riffles, if at all, and portages are unnecessary or rare. Normal float lengths can be attempted without a problem.Good(none)(none)
TrendFalling (falling over 24 hours)Low - River is low but can still be floated. Some riffles are okay but most come with significant dragging and might need a portage. Float lengths should be reduced to accommodate low flow, dragging, and portages.Low(none)(none)
USGSExternal icon USGS Site (External icon Google Maps)Poor - River is too low to float comfortably. Most or all riffles will drag or must be portaged and some obstacles (such as slick shelf rock) cause undue problems. Avoid the river at this stage for casual paddling trips.Poor(none)(none)

Trending Data

Plot Image

Trips for Missouri River (Missouri), Glasgow (06906500)

DateStartEndDistanceConditionDischargeHeightFishingDetails

A total of 0 rows are displayed.

Condition Descriptions

Fishing Conditions

Fish Species

Notes

Classic Trip List

The classic River Trips application is still available for use. It is updated with the new system using a data retrofit. It is no longer maintained. The original River Trips application is no longer updated (as of 1 Dec 2016) but can be checked for errors or for the condition of the data before it was converted to the new system.

Gauge Data Table

ObservationHeightDischargeMaximum
Discharge
Minimum
Discharge
Mean
Discharge
P05P10P20P25P50
(Median)
P75P80P90P95
2020-07-13 18:30 15.64 68600 232000 (2011) 36000 (2006) 87700 36000 41600 43300 44500 75000 105000 126000 175000 232000
2020-07-13 17:30 15.66 68800 232000 (2011) 36000 (2006) 87700 36000 41600 43300 44500 75000 105000 126000 175000 232000
2020-07-13 16:30 15.68 68900 232000 (2011) 36000 (2006) 87700 36000 41600 43300 44500 75000 105000 126000 175000 232000
2020-07-13 15:30 15.69 69000 232000 (2011) 36000 (2006) 87700 36000 41600 43300 44500 75000 105000 126000 175000 232000
2020-07-13 14:30 15.70 69100 232000 (2011) 36000 (2006) 87700 36000 41600 43300 44500 75000 105000 126000 175000 232000
2020-07-13 13:30 15.74 69400 232000 (2011) 36000 (2006) 87700 36000 41600 43300 44500 75000 105000 126000 175000 232000
2020-07-13 12:30 15.75 69400 232000 (2011) 36000 (2006) 87700 36000 41600 43300 44500 75000 105000 126000 175000 232000
2020-07-13 11:30 15.73 69300 232000 (2011) 36000 (2006) 87700 36000 41600 43300 44500 75000 105000 126000 175000 232000
2020-07-13 10:30 15.76 69500 232000 (2011) 36000 (2006) 87700 36000 41600 43300 44500 75000 105000 126000 175000 232000
2020-07-13 09:30 15.77 69600 232000 (2011) 36000 (2006) 87700 36000 41600 43300 44500 75000 105000 126000 175000 232000
2020-07-13 08:30 15.81 69900 232000 (2011) 36000 (2006) 87700 36000 41600 43300 44500 75000 105000 126000 175000 232000
2020-07-13 07:30 15.87 70300 232000 (2011) 36000 (2006) 87700 36000 41600 43300 44500 75000 105000 126000 175000 232000
2020-07-13 06:30 15.90 70500 232000 (2011) 36000 (2006) 87700 36000 41600 43300 44500 75000 105000 126000 175000 232000
2020-07-13 05:30 15.89 70500 232000 (2011) 36000 (2006) 87700 36000 41600 43300 44500 75000 105000 126000 175000 232000
2020-07-13 04:30 15.86 70200 232000 (2011) 36000 (2006) 87700 36000 41600 43300 44500 75000 105000 126000 175000 232000
2020-07-13 03:30 15.93 70800 232000 (2011) 36000 (2006) 87700 36000 41600 43300 44500 75000 105000 126000 175000 232000
2020-07-13 02:30 15.94 70800 232000 (2011) 36000 (2006) 87700 36000 41600 43300 44500 75000 105000 126000 175000 232000
2020-07-13 01:30 15.98 71100 232000 (2011) 36000 (2006) 87700 36000 41600 43300 44500 75000 105000 126000 175000 232000
2020-07-13 00:30 16.00 71300 232000 (2011) 36000 (2006) 87700 36000 41600 43300 44500 75000 105000 126000 175000 232000
2020-07-12 23:30 16.02 71400 232000 (2011) 35500 (2006) 85800 35500 38400 44400 45500 73700 107000 122000 179000 232000
2020-07-12 22:30 16.04 71600 232000 (2011) 35500 (2006) 85800 35500 38400 44400 45500 73700 107000 122000 179000 232000
2020-07-12 21:30 16.06 71700 232000 (2011) 35500 (2006) 85800 35500 38400 44400 45500 73700 107000 122000 179000 232000
2020-07-12 20:30 16.04 71600 232000 (2011) 35500 (2006) 85800 35500 38400 44400 45500 73700 107000 122000 179000 232000
2020-07-12 19:30 16.06 71700 232000 (2011) 35500 (2006) 85800 35500 38400 44400 45500 73700 107000 122000 179000 232000
2020-07-12 18:30 16.07 71800 232000 (2011) 35500 (2006) 85800 35500 38400 44400 45500 73700 107000 122000 179000 232000
2020-07-12 17:30 16.08 71900 232000 (2011) 35500 (2006) 85800 35500 38400 44400 45500 73700 107000 122000 179000 232000
2020-07-12 16:30 16.15 72400 232000 (2011) 35500 (2006) 85800 35500 38400 44400 45500 73700 107000 122000 179000 232000
2020-07-12 15:30 16.14 72300 232000 (2011) 35500 (2006) 85800 35500 38400 44400 45500 73700 107000 122000 179000 232000
2020-07-12 14:30 16.21 72800 232000 (2011) 35500 (2006) 85800 35500 38400 44400 45500 73700 107000 122000 179000 232000
2020-07-12 13:30 16.18 72600 232000 (2011) 35500 (2006) 85800 35500 38400 44400 45500 73700 107000 122000 179000 232000
2020-07-12 12:30 16.17 72500 232000 (2011) 35500 (2006) 85800 35500 38400 44400 45500 73700 107000 122000 179000 232000
2020-07-12 11:30 16.21 72800 232000 (2011) 35500 (2006) 85800 35500 38400 44400 45500 73700 107000 122000 179000 232000
2020-07-12 10:30 16.20 72800 232000 (2011) 35500 (2006) 85800 35500 38400 44400 45500 73700 107000 122000 179000 232000
2020-07-12 09:30 16.23 73000 232000 (2011) 35500 (2006) 85800 35500 38400 44400 45500 73700 107000 122000 179000 232000
2020-07-12 08:30 16.26 73200 232000 (2011) 35500 (2006) 85800 35500 38400 44400 45500 73700 107000 122000 179000 232000
2020-07-12 07:30 16.30 73500 232000 (2011) 35500 (2006) 85800 35500 38400 44400 45500 73700 107000 122000 179000 232000
2020-07-12 06:30 16.32 73700 232000 (2011) 35500 (2006) 85800 35500 38400 44400 45500 73700 107000 122000 179000 232000
2020-07-12 05:30 16.32 73700 232000 (2011) 35500 (2006) 85800 35500 38400 44400 45500 73700 107000 122000 179000 232000
2020-07-12 04:30 16.32 73700 232000 (2011) 35500 (2006) 85800 35500 38400 44400 45500 73700 107000 122000 179000 232000
2020-07-12 03:30 16.34 73800 232000 (2011) 35500 (2006) 85800 35500 38400 44400 45500 73700 107000 122000 179000 232000
2020-07-12 02:30 16.32 73700 232000 (2011) 35500 (2006) 85800 35500 38400 44400 45500 73700 107000 122000 179000 232000
2020-07-12 01:30 16.35 73900 232000 (2011) 35500 (2006) 85800 35500 38400 44400 45500 73700 107000 122000 179000 232000
2020-07-12 00:30 16.35 73900 232000 (2011) 35500 (2006) 85800 35500 38400 44400 45500 73700 107000 122000 179000 232000
2020-07-11 23:30 16.36 74000 238000 (2011) 34500 (2006) 87300 34500 37700 44800 46600 71100 108000 118000 184000 238000
2020-07-11 22:30 16.37 74100 238000 (2011) 34500 (2006) 87300 34500 37700 44800 46600 71100 108000 118000 184000 238000
2020-07-11 21:30 16.32 73700 238000 (2011) 34500 (2006) 87300 34500 37700 44800 46600 71100 108000 118000 184000 238000
2020-07-11 20:30 16.34 73800 238000 (2011) 34500 (2006) 87300 34500 37700 44800 46600 71100 108000 118000 184000 238000
2020-07-11 19:30 16.29 73500 238000 (2011) 34500 (2006) 87300 34500 37700 44800 46600 71100 108000 118000 184000 238000
2020-07-11 18:30 16.34 73800 238000 (2011) 34500 (2006) 87300 34500 37700 44800 46600 71100 108000 118000 184000 238000
2020-07-11 17:30 16.34 73800 238000 (2011) 34500 (2006) 87300 34500 37700 44800 46600 71100 108000 118000 184000 238000
2020-07-11 16:30 16.32 73700 238000 (2011) 34500 (2006) 87300 34500 37700 44800 46600 71100 108000 118000 184000 238000
2020-07-11 15:30 16.36 74000 238000 (2011) 34500 (2006) 87300 34500 37700 44800 46600 71100 108000 118000 184000 238000
2020-07-11 14:30 16.37 74100 238000 (2011) 34500 (2006) 87300 34500 37700 44800 46600 71100 108000 118000 184000 238000
2020-07-11 13:30 16.40 74300 238000 (2011) 34500 (2006) 87300 34500 37700 44800 46600 71100 108000 118000 184000 238000
2020-07-11 12:30 16.37 74100 238000 (2011) 34500 (2006) 87300 34500 37700 44800 46600 71100 108000 118000 184000 238000
2020-07-11 11:30 16.38 74100 238000 (2011) 34500 (2006) 87300 34500 37700 44800 46600 71100 108000 118000 184000 238000
2020-07-11 10:30 16.39 74200 238000 (2011) 34500 (2006) 87300 34500 37700 44800 46600 71100 108000 118000 184000 238000
2020-07-11 09:30 16.40 74300 238000 (2011) 34500 (2006) 87300 34500 37700 44800 46600 71100 108000 118000 184000 238000
2020-07-11 08:30 16.40 74300 238000 (2011) 34500 (2006) 87300 34500 37700 44800 46600 71100 108000 118000 184000 238000
2020-07-11 07:30 16.42 74400 238000 (2011) 34500 (2006) 87300 34500 37700 44800 46600 71100 108000 118000 184000 238000
2020-07-11 06:30 16.48 74900 238000 (2011) 34500 (2006) 87300 34500 37700 44800 46600 71100 108000 118000 184000 238000
2020-07-11 05:30 16.50 75100 238000 (2011) 34500 (2006) 87300 34500 37700 44800 46600 71100 108000 118000 184000 238000
2020-07-11 04:30 16.54 75400 238000 (2011) 34500 (2006) 87300 34500 37700 44800 46600 71100 108000 118000 184000 238000
2020-07-11 03:30 16.56 75500 238000 (2011) 34500 (2006) 87300 34500 37700 44800 46600 71100 108000 118000 184000 238000
2020-07-11 02:30 16.57 75600 238000 (2011) 34500 (2006) 87300 34500 37700 44800 46600 71100 108000 118000 184000 238000
2020-07-11 01:30 16.58 75700 238000 (2011) 34500 (2006) 87300 34500 37700 44800 46600 71100 108000 118000 184000 238000
2020-07-11 00:30 16.58 75700 238000 (2011) 34500 (2006) 87300 34500 37700 44800 46600 71100 108000 118000 184000 238000
2020-07-10 23:30 16.62 76000 240000 (2011) 34300 (2006) 91400 34300 37800 47200 47500 73400 119000 144000 186000 240000
2020-07-10 22:30 16.63 76100 240000 (2011) 34300 (2006) 91400 34300 37800 47200 47500 73400 119000 144000 186000 240000
2020-07-10 21:30 16.69 76500 240000 (2011) 34300 (2006) 91400 34300 37800 47200 47500 73400 119000 144000 186000 240000
2020-07-10 20:30 16.70 76600 240000 (2011) 34300 (2006) 91400 34300 37800 47200 47500 73400 119000 144000 186000 240000
2020-07-10 19:30 16.70 76600 240000 (2011) 34300 (2006) 91400 34300 37800 47200 47500 73400 119000 144000 186000 240000
2020-07-10 18:30 16.71 76700 240000 (2011) 34300 (2006) 91400 34300 37800 47200 47500 73400 119000 144000 186000 240000
2020-07-10 17:30 16.71 76700 240000 (2011) 34300 (2006) 91400 34300 37800 47200 47500 73400 119000 144000 186000 240000
2020-07-10 16:30 16.70 76600 240000 (2011) 34300 (2006) 91400 34300 37800 47200 47500 73400 119000 144000 186000 240000
2020-07-10 15:30 16.75 77000 240000 (2011) 34300 (2006) 91400 34300 37800 47200 47500 73400 119000 144000 186000 240000
2020-07-10 14:30 16.73 76900 240000 (2011) 34300 (2006) 91400 34300 37800 47200 47500 73400 119000 144000 186000 240000
2020-07-10 13:30 16.76 77100 240000 (2011) 34300 (2006) 91400 34300 37800 47200 47500 73400 119000 144000 186000 240000
2020-07-10 12:30 16.76 77100 240000 (2011) 34300 (2006) 91400 34300 37800 47200 47500 73400 119000 144000 186000 240000
2020-07-10 11:30 16.75 77000 240000 (2011) 34300 (2006) 91400 34300 37800 47200 47500 73400 119000 144000 186000 240000
2020-07-10 10:30 16.78 77300 240000 (2011) 34300 (2006) 91400 34300 37800 47200 47500 73400 119000 144000 186000 240000
2020-07-10 09:30 16.79 77300 240000 (2011) 34300 (2006) 91400 34300 37800 47200 47500 73400 119000 144000 186000 240000
2020-07-10 08:30 16.79 77300 240000 (2011) 34300 (2006) 91400 34300 37800 47200 47500 73400 119000 144000 186000 240000
2020-07-10 07:30 16.80 77400 240000 (2011) 34300 (2006) 91400 34300 37800 47200 47500 73400 119000 144000 186000 240000
2020-07-10 06:30 16.81 77500 240000 (2011) 34300 (2006) 91400 34300 37800 47200 47500 73400 119000 144000 186000 240000
2020-07-10 05:30 16.84 77700 240000 (2011) 34300 (2006) 91400 34300 37800 47200 47500 73400 119000 144000 186000 240000
2020-07-10 04:30 16.87 78000 240000 (2011) 34300 (2006) 91400 34300 37800 47200 47500 73400 119000 144000 186000 240000
2020-07-10 03:30 16.87 78000 240000 (2011) 34300 (2006) 91400 34300 37800 47200 47500 73400 119000 144000 186000 240000
2020-07-10 02:30 16.88 78000 240000 (2011) 34300 (2006) 91400 34300 37800 47200 47500 73400 119000 144000 186000 240000
2020-07-10 01:30 16.91 78300 240000 (2011) 34300 (2006) 91400 34300 37800 47200 47500 73400 119000 144000 186000 240000
2020-07-10 00:30 16.92 78400 240000 (2011) 34300 (2006) 91400 34300 37800 47200 47500 73400 119000 144000 186000 240000
2020-07-09 23:30 16.92 78400 244000 (2011) 34800 (2006) 97200 34800 37900 44800 49300 78100 138000 178000 204000 244000
2020-07-09 22:30 16.92 78400 244000 (2011) 34800 (2006) 97200 34800 37900 44800 49300 78100 138000 178000 204000 244000
2020-07-09 21:30 16.95 78600 244000 (2011) 34800 (2006) 97200 34800 37900 44800 49300 78100 138000 178000 204000 244000
2020-07-09 20:30 16.98 78900 244000 (2011) 34800 (2006) 97200 34800 37900 44800 49300 78100 138000 178000 204000 244000
2020-07-09 19:30 16.97 78800 244000 (2011) 34800 (2006) 97200 34800 37900 44800 49300 78100 138000 178000 204000 244000
2020-07-09 18:30 16.96 78700 244000 (2011) 34800 (2006) 97200 34800 37900 44800 49300 78100 138000 178000 204000 244000
2020-07-09 17:30 16.96 78700 244000 (2011) 34800 (2006) 97200 34800 37900 44800 49300 78100 138000 178000 204000 244000
2020-07-09 16:30 16.99 78900 244000 (2011) 34800 (2006) 97200 34800 37900 44800 49300 78100 138000 178000 204000 244000
2020-07-09 15:30 16.98 78900 244000 (2011) 34800 (2006) 97200 34800 37900 44800 49300 78100 138000 178000 204000 244000
2020-07-09 14:30 16.98 78900 244000 (2011) 34800 (2006) 97200 34800 37900 44800 49300 78100 138000 178000 204000 244000
2020-07-09 13:30 16.99 78900 244000 (2011) 34800 (2006) 97200 34800 37900 44800 49300 78100 138000 178000 204000 244000
2020-07-09 12:30 16.98 78900 244000 (2011) 34800 (2006) 97200 34800 37900 44800 49300 78100 138000 178000 204000 244000
2020-07-09 11:30 16.99 78900 244000 (2011) 34800 (2006) 97200 34800 37900 44800 49300 78100 138000 178000 204000 244000
2020-07-09 10:30 16.99 78900 244000 (2011) 34800 (2006) 97200 34800 37900 44800 49300 78100 138000 178000 204000 244000
2020-07-09 09:30 17.04 79300 244000 (2011) 34800 (2006) 97200 34800 37900 44800 49300 78100 138000 178000 204000 244000
2020-07-09 08:30 17.08 79700 244000 (2011) 34800 (2006) 97200 34800 37900 44800 49300 78100 138000 178000 204000 244000
2020-07-09 07:30 17.06 79500 244000 (2011) 34800 (2006) 97200 34800 37900 44800 49300 78100 138000 178000 204000 244000
2020-07-09 06:30 17.04 79300 244000 (2011) 34800 (2006) 97200 34800 37900 44800 49300 78100 138000 178000 204000 244000
2020-07-09 05:30 17.08 79700 244000 (2011) 34800 (2006) 97200 34800 37900 44800 49300 78100 138000 178000 204000 244000
2020-07-09 04:30 17.06 79500 244000 (2011) 34800 (2006) 97200 34800 37900 44800 49300 78100 138000 178000 204000 244000
2020-07-09 03:30 17.08 79700 244000 (2011) 34800 (2006) 97200 34800 37900 44800 49300 78100 138000 178000 204000 244000
2020-07-09 02:30 17.07 79600 244000 (2011) 34800 (2006) 97200 34800 37900 44800 49300 78100 138000 178000 204000 244000
2020-07-09 01:30 17.05 79400 244000 (2011) 34800 (2006) 97200 34800 37900 44800 49300 78100 138000 178000 204000 244000
2020-07-09 00:30 17.07 79600 244000 (2011) 34800 (2006) 97200 34800 37900 44800 49300 78100 138000 178000 204000 244000
2020-07-08 23:30 17.09 79700 240000 (2011) 35300 (2006) 98800 35300 38200 46100 51600 84100 126000 161000 214000 240000
2020-07-08 22:30 17.09 79700 240000 (2011) 35300 (2006) 98800 35300 38200 46100 51600 84100 126000 161000 214000 240000
2020-07-08 21:30 17.11 79900 240000 (2011) 35300 (2006) 98800 35300 38200 46100 51600 84100 126000 161000 214000 240000
2020-07-08 20:30 17.13 80100 240000 (2011) 35300 (2006) 98800 35300 38200 46100 51600 84100 126000 161000 214000 240000
2020-07-08 19:30 17.13 80100 240000 (2011) 35300 (2006) 98800 35300 38200 46100 51600 84100 126000 161000 214000 240000
2020-07-08 18:30 17.13 80100 240000 (2011) 35300 (2006) 98800 35300 38200 46100 51600 84100 126000 161000 214000 240000
2020-07-08 17:30 17.18 80500 240000 (2011) 35300 (2006) 98800 35300 38200 46100 51600 84100 126000 161000 214000 240000
2020-07-08 16:30 17.16 80300 240000 (2011) 35300 (2006) 98800 35300 38200 46100 51600 84100 126000 161000 214000 240000
2020-07-08 15:30 17.18 80500 240000 (2011) 35300 (2006) 98800 35300 38200 46100 51600 84100 126000 161000 214000 240000
2020-07-08 14:30 17.18 80500 240000 (2011) 35300 (2006) 98800 35300 38200 46100 51600 84100 126000 161000 214000 240000
2020-07-08 13:30 17.19 80600 240000 (2011) 35300 (2006) 98800 35300 38200 46100 51600 84100 126000 161000 214000 240000
2020-07-08 12:30 17.18 80500 240000 (2011) 35300 (2006) 98800 35300 38200 46100 51600 84100 126000 161000 214000 240000
2020-07-08 11:30 17.20 80600 240000 (2011) 35300 (2006) 98800 35300 38200 46100 51600 84100 126000 161000 214000 240000
2020-07-08 10:30 17.18 80500 240000 (2011) 35300 (2006) 98800 35300 38200 46100 51600 84100 126000 161000 214000 240000
2020-07-08 09:30 17.20 80600 240000 (2011) 35300 (2006) 98800 35300 38200 46100 51600 84100 126000 161000 214000 240000
2020-07-08 08:30 17.19 80600 240000 (2011) 35300 (2006) 98800 35300 38200 46100 51600 84100 126000 161000 214000 240000
2020-07-08 07:30 17.26 81100 240000 (2011) 35300 (2006) 98800 35300 38200 46100 51600 84100 126000 161000 214000 240000
2020-07-08 06:30 17.30 81500 240000 (2011) 35300 (2006) 98800 35300 38200 46100 51600 84100 126000 161000 214000 240000
2020-07-08 05:30 17.32 81600 240000 (2011) 35300 (2006) 98800 35300 38200 46100 51600 84100 126000 161000 214000 240000
2020-07-08 04:30 17.33 81700 240000 (2011) 35300 (2006) 98800 35300 38200 46100 51600 84100 126000 161000 214000 240000
2020-07-08 03:30 17.38 82100 240000 (2011) 35300 (2006) 98800 35300 38200 46100 51600 84100 126000 161000 214000 240000
2020-07-08 02:30 17.40 82300 240000 (2011) 35300 (2006) 98800 35300 38200 46100 51600 84100 126000 161000 214000 240000
2020-07-08 01:30 17.41 82400 240000 (2011) 35300 (2006) 98800 35300 38200 46100 51600 84100 126000 161000 214000 240000
2020-07-08 00:30 17.42 82500 240000 (2011) 35300 (2006) 98800 35300 38200 46100 51600 84100 126000 161000 214000 240000
2020-07-07 23:30 17.45 82700 238000 (2011) 36200 (2006) 96900 36200 38800 47700 53000 85500 108000 131000 207000 238000
2020-07-07 22:30 17.46 82800 238000 (2011) 36200 (2006) 96900 36200 38800 47700 53000 85500 108000 131000 207000 238000
2020-07-07 21:30 17.48 83000 238000 (2011) 36200 (2006) 96900 36200 38800 47700 53000 85500 108000 131000 207000 238000
2020-07-07 20:30 17.50 83100 238000 (2011) 36200 (2006) 96900 36200 38800 47700 53000 85500 108000 131000 207000 238000
2020-07-07 19:30 17.55 83500 238000 (2011) 36200 (2006) 96900 36200 38800 47700 53000 85500 108000 131000 207000 238000
2020-07-07 18:30 17.52 83300 238000 (2011) 36200 (2006) 96900 36200 38800 47700 53000 85500 108000 131000 207000 238000
2020-07-07 17:30 17.55 83500 238000 (2011) 36200 (2006) 96900 36200 38800 47700 53000 85500 108000 131000 207000 238000
2020-07-07 16:30 17.62 84100 238000 (2011) 36200 (2006) 96900 36200 38800 47700 53000 85500 108000 131000 207000 238000
2020-07-07 15:30 17.60 84000 238000 (2011) 36200 (2006) 96900 36200 38800 47700 53000 85500 108000 131000 207000 238000
2020-07-07 14:30 17.66 84500 238000 (2011) 36200 (2006) 96900 36200 38800 47700 53000 85500 108000 131000 207000 238000
2020-07-07 13:30 17.69 84700 238000 (2011) 36200 (2006) 96900 36200 38800 47700 53000 85500 108000 131000 207000 238000
2020-07-07 12:30 17.72 85000 238000 (2011) 36200 (2006) 96900 36200 38800 47700 53000 85500 108000 131000 207000 238000
2020-07-07 11:30 17.72 85000 238000 (2011) 36200 (2006) 96900 36200 38800 47700 53000 85500 108000 131000 207000 238000
2020-07-07 10:30 17.72 85000 238000 (2011) 36200 (2006) 96900 36200 38800 47700 53000 85500 108000 131000 207000 238000
2020-07-07 09:30 17.77 85400 238000 (2011) 36200 (2006) 96900 36200 38800 47700 53000 85500 108000 131000 207000 238000
2020-07-07 08:30 17.77 85400 238000 (2011) 36200 (2006) 96900 36200 38800 47700 53000 85500 108000 131000 207000 238000
2020-07-07 07:30 17.80 85700 238000 (2011) 36200 (2006) 96900 36200 38800 47700 53000 85500 108000 131000 207000 238000
2020-07-07 06:30 17.87 86300 238000 (2011) 36200 (2006) 96900 36200 38800 47700 53000 85500 108000 131000 207000 238000
2020-07-07 05:30 17.89 86400 238000 (2011) 36200 (2006) 96900 36200 38800 47700 53000 85500 108000 131000 207000 238000
2020-07-07 04:30 17.93 86800 238000 (2011) 36200 (2006) 96900 36200 38800 47700 53000 85500 108000 131000 207000 238000
2020-07-07 03:30 17.96 87100 238000 (2011) 36200 (2006) 96900 36200 38800 47700 53000 85500 108000 131000 207000 238000
2020-07-07 02:30 17.98 87200 238000 (2011) 36200 (2006) 96900 36200 38800 47700 53000 85500 108000 131000 207000 238000
2020-07-07 01:30 18.02 87600 238000 (2011) 36200 (2006) 96900 36200 38800 47700 53000 85500 108000 131000 207000 238000
2020-07-07 00:30 18.08 88100 238000 (2011) 36200 (2006) 96900 36200 38800 47700 53000 85500 108000 131000 207000 238000
2020-07-06 23:30 18.11 88400 238000 (2011) 37700 (2006) 97200 37700 40100 48900 55300 85600 113000 136000 201000 238000
2020-07-06 22:30 18.15 88700 238000 (2011) 37700 (2006) 97200 37700 40100 48900 55300 85600 113000 136000 201000 238000
2020-07-06 21:30 18.18 89000 238000 (2011) 37700 (2006) 97200 37700 40100 48900 55300 85600 113000 136000 201000 238000
2020-07-06 20:30 18.24 89500 238000 (2011) 37700 (2006) 97200 37700 40100 48900 55300 85600 113000 136000 201000 238000
2020-07-06 19:30 18.24 89500 238000 (2011) 37700 (2006) 97200 37700 40100 48900 55300 85600 113000 136000 201000 238000
2020-07-06 18:30 18.26 89700 238000 (2011) 37700 (2006) 97200 37700 40100 48900 55300 85600 113000 136000 201000 238000
2020-07-06 17:30 18.31 90100 238000 (2011) 37700 (2006) 97200 37700 40100 48900 55300 85600 113000 136000 201000 238000
2020-07-06 16:30 18.31 90100 238000 (2011) 37700 (2006) 97200 37700 40100 48900 55300 85600 113000 136000 201000 238000
2020-07-06 15:30 18.32 90200 238000 (2011) 37700 (2006) 97200 37700 40100 48900 55300 85600 113000 136000 201000 238000
2020-07-06 14:30 18.36 90600 238000 (2011) 37700 (2006) 97200 37700 40100 48900 55300 85600 113000 136000 201000 238000
2020-07-06 13:30 18.42 91100 238000 (2011) 37700 (2006) 97200 37700 40100 48900 55300 85600 113000 136000 201000 238000
2020-07-06 12:30 18.45 91300 238000 (2011) 37700 (2006) 97200 37700 40100 48900 55300 85600 113000 136000 201000 238000
2020-07-06 11:30 18.49 91700 238000 (2011) 37700 (2006) 97200 37700 40100 48900 55300 85600 113000 136000 201000 238000
2020-07-06 10:30 18.50 91700 238000 (2011) 37700 (2006) 97200 37700 40100 48900 55300 85600 113000 136000 201000 238000
2020-07-06 09:30 18.55 92200 238000 (2011) 37700 (2006) 97200 37700 40100 48900 55300 85600 113000 136000 201000 238000
2020-07-06 08:30 18.60 92600 238000 (2011) 37700 (2006) 97200 37700 40100 48900 55300 85600 113000 136000 201000 238000
2020-07-06 07:30 18.63 92800 238000 (2011) 37700 (2006) 97200 37700 40100 48900 55300 85600 113000 136000 201000 238000
2020-07-06 06:30 18.67 93200 238000 (2011) 37700 (2006) 97200 37700 40100 48900 55300 85600 113000 136000 201000 238000
2020-07-06 05:30 18.73 93700 238000 (2011) 37700 (2006) 97200 37700 40100 48900 55300 85600 113000 136000 201000 238000
2020-07-06 04:30 18.77 94000 238000 (2011) 37700 (2006) 97200 37700 40100 48900 55300 85600 113000 136000 201000 238000
2020-07-06 03:30 18.81 94400 238000 (2011) 37700 (2006) 97200 37700 40100 48900 55300 85600 113000 136000 201000 238000
2020-07-06 02:30 18.81 94400 238000 (2011) 37700 (2006) 97200 37700 40100 48900 55300 85600 113000 136000 201000 238000
2020-07-06 01:30 18.85 94700 238000 (2011) 37700 (2006) 97200 37700 40100 48900 55300 85600 113000 136000 201000 238000
2020-07-06 00:30 18.89 95000 238000 (2011) 37700 (2006) 97200 37700 40100 48900 55300 85600 113000 136000 201000 238000

A total of 187 rows are displayed for years 2001 through 2019.